Terminal Aerodrome Forecast
Issued by NWS

Home | Current Version | Previous Version | Text Only | Print | Product List | Glossary On
Versions: 1 2 3 4 5 6 7 8 9 10 11 12 13 14 15 16 17 18 19 20 21 22 23 24 25 26 27 28 29 30
000
FTUS43 KDLH 211500 AAA
TAFBRD
TAF AMD
KBRD 211517Z 2115/2212 19011G15KT P6SM SCT100 BKN220
     FM211700 19012G20KT P6SM BKN110
     FM212300 20012G22KT P6SM BKN035
     FM220100 21010KT P6SM BKN025 WS020/24040KT=

USA.gov is the U.S. government's official web portal to all federal, state and local government web resources and services.